Terminal Aerodrome Forecast
Issued by NWS

Home | Current Version | Previous Version | Text Only | Print | Product List | Glossary On
Versions: 1 2 3 4 5 6 7 8 9 10 11 12 13 14 15 16 17
000
FTUS41 KBTV 220500
TAFMPV
TAF
KMPV 220520Z 2206/2306 00000KT P6SM BKN070 OVC100
     FM220800 00000KT 3SM BR SKC
      TEMPO 2208/2211 1SM BR
     FM221200 24006KT P6SM FEW050
     FM222200 VRB02KT P6SM SCT200=

USA.gov is the U.S. government's official web portal to all federal, state and local government web resources and services.